Catàleg de serveis del Meteocat

Dades de l'estació automàtica Òdena

?
?
Resum diari 23:00 TU
Dades diàries de l'estació meteorològica
Temperatura mitjana 8.2 °C
Temperatura màxima 10.8 °C 14:29 TU
Temperatura mínima 5.4 °C 23:16 TU
Humitat relativa mitjana 96%
Precipitació acumulada 5.5 mm
Ratxa màxima del vent (10 m) 22.7 km/h - 62º 18:40 TU
Pressió atmosfèrica mitjana 1001.9 hPa
Irradiació solar global 3.1 MJ/m2

El tram horari està expressat en Temps Universal (TU). Cal sumar una hora en horari d'hivern i dues en horari d'estiu per passar a l'hora oficial.

Òdena

Metadades estació meteorol´gica
Municipi Òdena
Comarca Anoia
Altitud 333 m
Data alta 31.05.1999
Estat actual Operativa
Dades de període
Període
TU
TM
°C
TX
°C
TN
°C
HRM
%
PPT
mm
VVM (10 m)
km/h
DVM (10 m)
graus
VVX (10 m)
km/h
PM
hPa
RS
W/m2
00:00 - 00:30 7.6 7.7 7.6 98 0.4 1.8 323 4.7 1001.2 0
00:30 - 01:00 7.5 7.7 7.4 98 0.0 0.7 108 4.0 1001.1 0
01:00 - 01:30 7.4 7.6 7.2 98 0.0 1.4 150 4.7 1001.0 0
01:30 - 02:00 7.3 7.5 7.1 98 0.0 1.8 235 5.0 1000.9 0
02:00 - 02:30 7.3 7.4 7.1 99 0.0 1.8 292 5.8 1001.0 0
02:30 - 03:00 7.1 7.3 7.0 99 0.0 0.7 126 5.0 1000.8 0
03:00 - 03:30 7.1 7.2 7.0 99 0.0 1.1 256 3.6 1000.8 0
03:30 - 04:00 7.2 7.2 6.9 99 0.0 0.4 169 2.9 1000.8 0
04:00 - 04:30 6.5 6.9 6.3 99 0.0 1.1 245 4.0 1001.0 0
04:30 - 05:00 6.2 6.4 5.9 99 0.0 0.7 272 4.0 1001.1 0
05:00 - 05:30 6.6 6.8 6.3 100 0.0 2.2 12 5.0 1001.3 0
05:30 - 06:00 6.7 6.8 6.7 100 0.0 1.1 133 4.3 1001.4 0
06:00 - 06:30 6.6 6.7 6.4 100 0.0 2.5 196 6.5 1001.3 0
06:30 - 07:00 6.4 6.4 6.3 100 0.0 1.4 335 4.7 1001.4 2
07:00 - 07:30 6.6 6.6 6.5 100 0.0 2.2 346 7.2 1001.8 11
07:30 - 08:00 6.7 6.9 6.6 100 0.0 1.1 20 6.1 1002.1 13
08:00 - 08:30 6.9 7.0 6.9 100 0.0 5.0 260 10.8 1002.1 28
08:30 - 09:00 7.2 7.4 6.9 100 0.0 4.7 262 9.7 1002.1 52
09:00 - 09:30 7.4 7.6 7.3 100 0.0 1.8 258 5.0 1002.4 41
09:30 - 10:00 7.7 8.0 7.5 99 0.1 2.2 300 4.7 1002.7 59
10:00 - 10:30 8.4 8.9 8.0 97 0.0 1.4 270 4.0 1002.6 131
10:30 - 11:00 8.9 9.3 8.6 96 0.0 1.8 314 5.8 1002.3 143
11:00 - 11:30 9.8 10.2 9.3 94 0.0 4.7 37 13.3 1001.8 231
11:30 - 12:00 10.2 10.5 9.9 91 0.1 3.6 295 6.5 1001.6 209
12:00 - 12:30 10.5 10.6 10.4 90 0.0 1.8 359 7.6 1001.3 150
12:30 - 13:00 10.3 10.6 10.2 87 0.0 11.5 56 19.4 1001.2 122
13:00 - 13:30 10.4 10.5 10.3 86 0.0 9.0 57 15.5 1001.0 113
13:30 - 14:00 10.5 10.6 10.3 85 0.0 11.5 53 19.1 1000.8 121
14:00 - 14:30 10.5 10.8 10.3 83 0.0 12.2 61 20.2 1000.9 136
14:30 - 15:00 10.7 10.8 10.6 82 0.0 11.2 59 17.3 1000.8 109
15:00 - 15:30 10.4 10.6 10.2 83 0.0 11.9 64 18.7 1000.9 60
15:30 - 16:00 10.2 10.3 10.1 83 0.0 10.4 61 19.1 1001.0 28
16:00 - 16:30 9.9 10.1 9.8 86 0.0 9.4 65 18.0 1000.9 9
16:30 - 17:00 9.7 9.8 9.5 89 0.0 7.9 88 12.2 1001.1 0
17:00 - 17:30 10.0 10.1 9.9 91 0.0 2.5 37 11.5 1001.3 0
17:30 - 18:00 10.0 10.1 10.0 90 0.0 1.4 345 10.1 1001.9 0
18:00 - 18:30 9.7 10.1 9.2 96 4.0 9.4 263 19.1 1002.9 0
18:30 - 19:00 8.9 9.2 8.7 100 0.9 11.9 83 22.7 1002.2 0
19:00 - 19:30 8.7 8.8 8.7 99 0.0 5.4 265 13.0 1002.5 0
19:30 - 20:00 8.8 8.9 8.6 100 0.0 5.8 294 10.8 1002.7 0
20:00 - 20:30 8.7 8.7 8.5 100 0.0 5.4 287 7.9 1003.1 0
20:30 - 21:00 8.2 8.4 8.0 100 0.0 1.8 231 5.8 1003.6 0
21:00 - 21:30 7.9 8.0 7.6 100 0.0 0.7 333 3.2 1003.7 0
21:30 - 22:00 7.6 7.7 7.2 100 0.0 2.2 334 5.8 1004.1 0
22:00 - 22:30 6.8 7.1 6.5 100 0.0 3.6 293 7.2 1004.3 0
22:30 - 23:00 6.2 6.6 5.7 100 0.0 1.8 274 4.7 1004.8 0
23:00 - 23:30 5.7 5.8 5.4 100 0.0 1.4 32 5.4 1005.3 0

Les dades en taronja només han passat un control de qualitat automàtic. Resta pendent la seva validació definitiva.